Newton Hook, New York
Current Conditions -  °F | °C
As of 10:46 AM on Monday 22 Dec 2014 (Local Time) from KPSF Reporting Station
Overcast Overcast  
Wind Chill: 29°   Ceiling: 1100
Heat Index: 34°   Visibility: 10mi
Dew Point: 31°   Wind: 6mph
Humidity: 89%   Direction: 50°NE
Pressure: 30.29"   Gusts: NA
Location:  42.3826°N, 73.7611°W
Report Text: KPSF 221546Z AUTO 05005KT 10SM OVC011 01/M01 A3029 RMK AO2 T00111006
Loading
Personal Weather Stations






























Interactive Weather Map New forecast layout! Learn more

10-Day Weather Forecast

Advertisements
Track Severe Weather on mobile